METAR Data
IDs: Format: Raw Decoded Include TAF

Data at: 1502 UTC 03 Jun 2020

KJLN 031453Z 22009G21KT 10SM CLR 27/21 A2997 RMK AO2 SLP138 T02720206 56002
KJLN 031353Z 21010G21KT 10SM CLR 26/21 A2998 RMK AO2 SLP140 T02560206
KJLN 031253Z 21014G20KT 10SM CLR 24/19 A2997 RMK AO2 SLP138 T02390194
KJLN 031153Z 20010KT 10SM CLR 23/19 A2998 RMK AO2 SLP141 T02280189 10228 20217 50000
KJLN 031053Z 20009KT 10SM SCT075 22/19 A2999 RMK AO2 SLP144 T02170189
KJLN 030953Z AUTO 21008KT 10SM CLR 22/18 A2998 RMK AO2 SLP143 T02170183
KJLN 030853Z AUTO 19008KT 10SM CLR 22/18 A2998 RMK AO2 SLP141 T02170183 56013
KJLN 030753Z AUTO 19008KT 10SM CLR 22/18 A2999 RMK AO2 SLP144 T02170183
KJLN 030653Z AUTO 19010KT 10SM CLR 22/18 A3000 RMK AO2 SLP147 T02220183
KJLN 030553Z AUTO 18011KT 10SM CLR 23/18 A3002 RMK AO2 SLP152 T02280183 10267 20222 402890178 50003
KJLN 030453Z AUTO 19009KT 10SM CLR 23/18 A3002 RMK AO2 SLP156 T02280178
KJLN 030353Z AUTO 19008KT 10SM CLR 23/18 A3002 RMK AO2 SLP154 T02280183
KJLN 030253Z AUTO 18009KT 10SM CLR 23/18 A3001 RMK AO2 SLP150 T02330183 53002
KJLN 030153Z 18007KT 10SM CLR 24/18 A3000 RMK AO2 SLP147 T02390183
KJLN 030053Z 19008KT 10SM CLR 25/19 A3000 RMK AO2 SLP149 T02500189
KJLN 022353Z 17008KT 10SM CLR 27/19 A3000 RMK AO2 SLP150 T02670189 10289 20267 58008
KJLN 022253Z 18007KT 10SM CLR 27/18 A3001 RMK AO2 SLP154 T02670183
KJLN 022153Z 18010KT 10SM CLR 28/18 A3002 RMK AO2 SLP156 T02780178
KJLN 022053Z 18011G18KT 10SM CLR 28/18 A3003 RMK AO2 SLP158 T02830183 56018
KJLN 021953Z 19008G14KT 10SM CLR 29/19 A3004 RMK AO2 SLP161 T02890189
KJLN 021853Z 19013KT 10SM CLR 28/19 A3006 RMK AO2 SLP168 T02830189
KJLN 021753Z 23010G17KT 10SM CLR 28/18 A3008 RMK AO2 SLP176 T02780183 10283 20178 58009
KJLN 021653Z 23010G19KT 10SM CLR 27/18 A3009 RMK AO2 SLP181 T02670183
KJLN 021553Z 21011G18KT 10SM CLR 26/17 A3010 RMK AO2 SLP185 T02560172
KJLN 021453Z 21012KT 10SM CLR 24/18 A3011 RMK AO2 SLP186 T02440178 50002
KJLN 021353Z 20011G17KT 10SM CLR 23/17 A3011 RMK AO2 SLP187 T02330167
KJLN 021253Z 19009KT 10SM CLR 21/16 A3011 RMK AO2 SLP186 T02060161
KJLN 021153Z 19006KT 10SM CLR 18/16 A3010 RMK AO2 SLP185 T01780156 10194 20178 53009
KJLN 021053Z 18007KT 10SM CLR 18/15 A3008 RMK AO2 SLP180 T01780150
KJLN 020953Z AUTO 19007KT 10SM CLR 18/15 A3008 RMK AO2 SLP176 T01830150
KJLN 020853Z AUTO 18008KT 10SM CLR 18/15 A3007 RMK AO2 SLP174 T01830150 57007
KJLN 020753Z AUTO 18008KT 10SM CLR 19/15 A3008 RMK AO2 SLP176 T01890150
KJLN 020653Z AUTO 18007KT 10SM CLR 19/15 A3009 RMK AO2 SLP179 T01890150
KJLN 020553Z AUTO 17007KT 10SM CLR 19/15 A3009 RMK AO2 SLP181 T01890150 10250 20189 402830172 58005
KJLN 020453Z AUTO 18007KT 10SM CLR 20/14 A3011 RMK AO2 SLP186 T02000144
KJLN 020353Z AUTO 18007KT 10SM CLR 21/15 A3011 RMK AO2 SLP187 T02060150